Time;durP1;ratioP1;P1;durP2;ratioP2;P2;SDS_P1;SDS_P2;PMS_P1;PMS_P2;Temp;Humidity;BMP_temperature;BMP_pressure;BME280_temperature;BME280_humidity;BME280_pressure;Samples;Min_cycle;Max_cycle;Signal;HPM_P1;HPM_P2
2022/02/19 00:01:52;;;;;;;3.05;1.00;;;6.70;99.90;;;;;;5022842;28;20222;-85
2022/02/19 00:04:19;;;;;;;1.55;0.88;;;6.70;99.80;;;;;;5023731;28;20231;-83
2022/02/19 00:06:46;;;;;;;2.05;1.00;;;6.70;99.70;;;;;;5025684;28;20199;-80
2022/02/19 00:09:13;;;;;;;4.55;2.20;;;6.80;99.90;;;;;;5024920;28;20217;-83
2022/02/19 00:11:41;;;;;;;3.90;1.25;;;6.70;99.70;;;;;;5019808;28;20207;-80
2022/02/19 00:14:09;;;;;;;2.33;1.45;;;6.70;99.80;;;;;;5023646;28;20233;-82
2022/02/19 00:16:36;;;;;;;2.08;1.45;;;6.70;99.40;;;;;;5023404;28;20314;-82
2022/02/19 00:19:03;;;;;;;4.60;1.67;;;6.70;99.30;;;;;;5024546;28;20269;-81
2022/02/19 00:21:31;;;;;;;9.50;2.65;;;6.70;99.60;;;;;;5025981;28;20673;-81
2022/02/19 00:23:58;;;;;;;1.23;0.80;;;6.70;99.50;;;;;;5030480;28;20222;-82
2022/02/19 00:26:24;;;;;;;5.25;1.52;;;6.60;99.30;;;;;;5019023;28;20250;-81
2022/02/19 00:28:51;;;;;;;1.52;1.02;;;6.70;99.40;;;;;;5020631;28;20207;-81
2022/02/19 00:31:20;;;;;;;4.43;1.13;;;6.60;99.30;;;;;;5020453;28;20207;-81
2022/02/19 00:33:47;;;;;;;1.23;1.13;;;6.60;99.40;;;;;;5024081;28;20260;-82
2022/02/19 00:36:13;;;;;;;1.55;1.27;;;6.70;99.00;;;;;;5022060;28;20226;-81
2022/02/19 00:38:40;;;;;;;2.70;1.40;;;6.70;98.80;;;;;;5021841;28;20207;-82
2022/02/19 00:41:07;;;;;;;2.35;1.00;;;6.60;98.50;;;;;;5022785;28;20211;-81
2022/02/19 00:43:34;;;;;;;4.38;1.65;;;6.60;97.70;;;;;;5022683;28;20553;-82
2022/02/19 00:46:01;;;;;;;1.75;1.15;;;6.70;98.00;;;;;;5022615;28;20203;-81
2022/02/19 00:48:29;;;;;;;4.10;1.73;;;6.70;97.90;;;;;;5023197;28;20203;-81
2022/02/19 00:50:56;;;;;;;1.42;0.60;;;6.60;97.70;;;;;;5021268;28;20207;-82
2022/02/19 00:53:22;;;;;;;1.25;0.90;;;6.60;97.10;;;;;;5021852;28;20203;-82
2022/02/19 00:55:49;;;;;;;4.47;1.20;;;6.60;96.90;;;;;;5021162;28;20230;-81
2022/02/19 00:58:16;;;;;;;4.22;1.33;;;6.70;96.40;;;;;;5020242;28;20567;-82
2022/02/19 01:00:43;;;;;;;1.90;1.30;;;6.70;96.30;;;;;;5020069;28;20606;-81
2022/02/19 01:03:10;;;;;;;1.98;1.00;;;6.70;96.70;;;;;;5019460;28;20210;-81
2022/02/19 01:05:38;;;;;;;2.05;1.30;;;6.70;96.20;;;;;;5020381;28;20226;-83
2022/02/19 01:08:06;;;;;;;3.50;1.05;;;6.70;96.00;;;;;;5020388;28;20210;-82
2022/02/19 01:10:34;;;;;;;6.47;1.70;;;6.80;95.70;;;;;;5020199;28;20199;-81
2022/02/19 01:13:01;;;;;;;4.13;0.95;;;6.80;95.70;;;;;;5019283;28;20203;-81
2022/02/19 01:15:28;;;;;;;2.53;1.38;;;6.80;95.50;;;;;;5019555;28;20694;-81
2022/02/19 01:17:56;;;;;;;3.30;1.73;;;6.70;95.80;;;;;;5020005;28;20207;-82
2022/02/19 01:20:23;;;;;;;2.33;1.30;;;6.70;95.60;;;;;;5018976;28;20237;-81
2022/02/19 01:22:51;;;;;;;1.65;1.10;;;6.80;95.40;;;;;;5019904;28;20210;-82
2022/02/19 01:25:18;;;;;;;6.57;1.98;;;6.80;95.40;;;;;;5020574;28;20230;-82
2022/02/19 01:27:52;;;;;;;4.97;1.23;;;6.80;95.10;;;;;;5018121;28;20195;-81
2022/02/19 01:30:19;;;;;;;4.30;1.52;;;6.80;95.30;;;;;;5016791;28;20702;-81
2022/02/19 01:32:46;;;;;;;5.78;2.03;;;6.80;95.20;;;;;;5016566;28;20203;-82
2022/02/19 01:35:12;;;;;;;2.50;1.40;;;6.80;95.40;;;;;;5016104;28;20233;-82
2022/02/19 01:37:39;;;;;;;3.50;1.05;;;6.70;95.10;;;;;;5016764;28;20203;-81
2022/02/19 01:40:08;;;;;;;0.80;0.80;;;6.60;94.70;;;;;;5016483;28;20560;-80
2022/02/19 01:42:35;;;;;;;1.35;1.23;;;6.60;94.50;;;;;;5016124;28;20650;-82
2022/02/19 01:45:02;;;;;;;5.30;2.53;;;6.60;94.40;;;;;;5017984;28;20231;-81
2022/02/19 01:47:29;;;;;;;2.17;1.70;;;6.60;94.20;;;;;;5018414;28;20203;-81
2022/02/19 01:49:56;;;;;;;6.15;1.65;;;6.60;94.40;;;;;;5017530;28;20214;-82
2022/02/19 01:52:25;;;;;;;7.35;2.28;;;6.60;94.50;;;;;;5017435;28;20215;-81
2022/02/19 01:54:51;;;;;;;5.55;2.53;;;6.60;94.30;;;;;;5017432;28;20223;-82
2022/02/19 01:57:19;;;;;;;4.38;2.00;;;6.60;94.50;;;;;;5017279;28;20237;-83
2022/02/19 01:59:46;;;;;;;2.75;1.20;;;6.50;94.50;;;;;;5017651;28;20681;-82
2022/02/19 02:02:13;;;;;;;5.05;2.00;;;6.50;94.80;;;;;;5016794;28;20594;-82
2022/02/19 02:04:41;;;;;;;2.25;1.67;;;6.50;94.30;;;;;;5017684;28;20254;-82
2022/02/19 02:07:09;;;;;;;1.35;1.10;;;6.50;94.50;;;;;;5017028;28;20222;-82
2022/02/19 02:09:37;;;;;;;3.50;1.23;;;6.50;94.50;;;;;;5018581;28;20217;-82
2022/02/19 02:12:06;;;;;;;2.75;0.93;;;6.50;94.40;;;;;;5018209;28;20218;-83
2022/02/19 02:14:38;;;;;;;6.78;1.70;;;6.40;94.50;;;;;;5018989;28;20233;-82
2022/02/19 02:17:05;;;;;;;1.95;1.45;;;6.40;94.40;;;;;;5017937;28;20223;-82
2022/02/19 02:19:31;;;;;;;2.95;1.50;;;6.40;94.30;;;;;;5018888;28;20230;-82
2022/02/19 02:22:00;;;;;;;2.65;1.55;;;6.40;94.40;;;;;;5018322;28;20210;-83
2022/02/19 02:24:28;;;;;;;6.65;2.40;;;6.40;94.60;;;;;;5018912;28;20222;-82
2022/02/19 02:26:55;;;;;;;2.88;1.27;;;6.30;94.70;;;;;;5017957;28;20206;-83
2022/02/19 02:29:21;;;;;;;2.20;1.17;;;6.30;94.70;;;;;;5018725;28;20206;-83
2022/02/19 02:31:48;;;;;;;4.70;1.65;;;6.20;94.30;;;;;;5018013;28;20207;-83
2022/02/19 02:34:15;;;;;;;3.22;1.25;;;6.30;94.20;;;;;;5017896;28;20235;-83
2022/02/19 02:36:41;;;;;;;2.47;1.13;;;6.20;94.20;;;;;;5017565;28;20227;-83
2022/02/19 02:39:10;;;;;;;2.72;1.33;;;6.20;94.20;;;;;;5018367;28;20211;-82
2022/02/19 02:41:36;;;;;;;2.92;2.25;;;6.20;94.30;;;;;;5017188;28;20588;-83
2022/02/19 02:44:04;;;;;;;2.25;1.60;;;6.20;94.20;;;;;;5018476;28;20233;-83
2022/02/19 02:46:30;;;;;;;4.53;1.90;;;6.20;94.50;;;;;;5018561;28;20226;-82
2022/02/19 02:48:57;;;;;;;2.70;1.00;;;6.20;94.70;;;;;;5018959;28;20203;-82
2022/02/19 02:51:24;;;;;;;3.35;1.70;;;6.10;94.60;;;;;;5017612;28;20215;-83
2022/02/19 02:53:52;;;;;;;3.03;2.38;;;6.10;94.40;;;;;;5018080;28;20234;-81
2022/02/19 02:56:20;;;;;;;4.43;1.90;;;6.10;94.60;;;;;;5018328;28;20226;-82
2022/02/19 02:58:47;;;;;;;3.25;2.28;;;6.10;94.60;;;;;;5019286;28;20207;-83
2022/02/19 03:01:14;;;;;;;4.35;1.10;;;6.00;94.50;;;;;;5018508;28;20215;-83
2022/02/19 03:03:40;;;;;;;3.50;1.70;;;6.10;94.10;;;;;;5017995;28;20579;-81
2022/02/19 03:06:07;;;;;;;5.15;1.73;;;6.10;94.40;;;;;;5018132;28;20195;-82
2022/02/19 03:08:34;;;;;;;2.58;1.10;;;6.00;94.20;;;;;;5018229;28;20576;-83
2022/02/19 03:11:01;;;;;;;3.97;1.48;;;6.00;94.20;;;;;;5017117;28;20203;-83
2022/02/19 03:13:30;;;;;;;1.15;0.93;;;6.00;94.10;;;;;;5017989;28;20210;-83
2022/02/19 03:15:57;;;;;;;6.57;1.52;;;6.00;94.00;;;;;;5017782;28;20246;-84
2022/02/19 03:18:23;;;;;;;2.65;1.80;;;6.00;94.00;;;;;;5017626;28;20234;-83
2022/02/19 03:20:50;;;;;;;3.53;1.05;;;6.00;94.50;;;;;;5017134;28;20665;-84
2022/02/19 03:23:17;;;;;;;7.75;1.90;;;6.00;94.40;;;;;;5017251;28;20207;-83
2022/02/19 03:25:44;;;;;;;4.35;1.80;;;6.00;94.60;;;;;;5017607;28;20233;-83
2022/02/19 03:28:10;;;;;;;5.35;1.27;;;5.90;94.50;;;;;;5018487;28;20207;-83
2022/02/19 03:30:38;;;;;;;2.40;0.77;;;5.90;94.00;;;;;;5017334;28;20199;-84
2022/02/19 03:33:05;;;;;;;1.75;1.13;;;6.00;93.70;;;;;;5017990;28;20210;-83
2022/02/19 03:35:32;;;;;;;3.80;1.50;;;5.90;93.90;;;;;;5017294;28;20238;-83
2022/02/19 03:37:58;;;;;;;4.03;1.42;;;6.00;94.20;;;;;;5018145;28;20227;-83
2022/02/19 03:40:25;;;;;;;4.45;1.55;;;5.90;94.00;;;;;;5017583;28;20603;-83
2022/02/19 03:42:52;;;;;;;2.35;1.55;;;5.90;94.30;;;;;;5017531;28;20199;-83
2022/02/19 03:45:19;;;;;;;5.28;1.40;;;5.90;93.80;;;;;;5017511;28;20635;-84
2022/02/19 03:47:47;;;;;;;5.55;1.85;;;5.90;94.00;;;;;;5017834;28;20204;-83
2022/02/19 03:50:17;;;;;;;5.40;2.15;;;5.80;94.00;;;;;;5016814;28;20203;-83
2022/02/19 03:52:44;;;;;;;3.78;3.42;;;5.80;93.70;;;;;;5016963;28;20647;-82
2022/02/19 03:55:11;;;;;;;3.25;3.05;;;5.80;93.80;;;;;;5019284;28;20237;-83
2022/02/19 03:57:38;;;;;;;2.90;1.95;;;5.80;93.90;;;;;;5020908;28;20769;-83
2022/02/19 04:00:07;;;;;;;2.50;1.20;;;5.80;94.20;;;;;;5020301;28;20222;-84
2022/02/19 04:02:38;;;;;;;5.88;1.75;;;5.70;94.30;;;;;;5020578;28;20709;-84
2022/02/19 04:05:08;;;;;;;1.10;1.10;;;5.70;93.90;;;;;;5020673;28;20234;-82
2022/02/19 04:07:34;;;;;;;0.50;0.50;;;5.60;94.00;;;;;;5020833;28;20203;-82
2022/02/19 04:10:01;;;;;;;1.67;1.02;;;5.60;93.60;;;;;;5021323;28;20218;-83
2022/02/19 04:12:28;;;;;;;1.80;1.15;;;5.60;93.70;;;;;;5021921;28;20207;-83
2022/02/19 04:14:55;;;;;;;2.72;2.50;;;5.50;93.40;;;;;;5022687;28;20259;-83
2022/02/19 04:17:22;;;;;;;1.25;1.02;;;5.60;93.80;;;;;;5023791;28;20230;-83
2022/02/19 04:19:50;;;;;;;0.95;0.85;;;5.50;93.70;;;;;;5022312;28;20203;-84
2022/02/19 04:22:18;;;;;;;1.85;1.30;;;5.50;93.50;;;;;;5021756;28;20249;-83
2022/02/19 04:24:46;;;;;;;1.55;1.23;;;5.50;93.40;;;;;;5021318;28;20237;-83
2022/02/19 04:27:13;;;;;;;2.05;1.10;;;5.40;93.10;;;;;;5020491;28;20196;-83
2022/02/19 04:29:40;;;;;;;2.80;1.05;;;5.30;92.60;;;;;;5021235;28;20214;-84
2022/02/19 04:32:08;;;;;;;2.92;1.48;;;5.30;92.80;;;;;;5019691;28;20203;-83
2022/02/19 04:34:35;;;;;;;8.57;1.30;;;5.30;92.90;;;;;;5019999;28;20227;-83
2022/02/19 04:37:02;;;;;;;3.60;1.90;;;5.20;92.90;;;;;;5020033;28;20223;-83
2022/02/19 04:39:30;;;;;;;1.00;0.80;;;5.20;93.10;;;;;;5020111;28;20583;-83
2022/02/19 04:41:56;;;;;;;2.88;1.40;;;5.10;93.30;;;;;;5020034;28;20218;-83
2022/02/19 04:44:23;;;;;;;3.05;1.15;;;5.20;93.40;;;;;;5019722;28;20233;-83
2022/02/19 04:46:50;;;;;;;6.88;1.38;;;5.20;93.30;;;;;;5012370;28;20199;-83
2022/02/19 04:49:17;;;;;;;2.95;1.02;;;5.10;93.50;;;;;;5020101;28;20562;-83
2022/02/19 04:51:43;;;;;;;1.50;1.17;;;5.00;93.10;;;;;;5019934;28;20203;-82
2022/02/19 04:54:10;;;;;;;2.53;1.90;;;5.00;93.20;;;;;;5019412;28;20259;-83
2022/02/19 04:56:40;;;;;;;1.30;1.20;;;5.00;93.20;;;;;;5019802;28;20254;-83
2022/02/19 04:59:06;;;;;;;5.18;2.20;;;5.00;93.40;;;;;;5020049;28;20211;-83
2022/02/19 05:01:33;;;;;;;5.85;2.22;;;4.90;93.40;;;;;;5019644;28;20718;-83
2022/02/19 05:04:00;;;;;;;4.43;1.60;;;4.90;93.20;;;;;;5020223;28;20231;-83
2022/02/19 05:06:26;;;;;;;6.75;2.05;;;4.90;93.10;;;;;;5020942;28;20208;-83
2022/02/19 05:08:53;;;;;;;4.53;1.85;;;4.90;93.00;;;;;;5022969;28;20577;-83
2022/02/19 05:11:20;;;;;;;1.80;1.50;;;4.90;93.50;;;;;;5021207;28;20207;-82
2022/02/19 05:13:48;;;;;;;2.45;1.40;;;4.90;93.10;;;;;;5020434;28;20200;-83
2022/02/19 05:16:15;;;;;;;4.22;3.38;;;4.80;93.40;;;;;;5019947;28;20213;-83
2022/02/19 05:18:42;;;;;;;1.10;1.00;;;4.80;93.30;;;;;;5019897;28;20207;-84
2022/02/19 05:21:09;;;;;;;5.28;1.42;;;4.80;93.40;;;;;;5019784;28;20218;-83
2022/02/19 05:23:36;;;;;;;2.80;1.48;;;4.70;93.60;;;;;;5019421;28;20203;-84
2022/02/19 05:26:02;;;;;;;2.83;1.33;;;4.70;93.50;;;;;;5019579;28;20207;-82
2022/02/19 05:28:29;;;;;;;2.53;1.33;;;4.70;93.50;;;;;;5019075;28;20199;-83
2022/02/19 05:30:57;;;;;;;4.88;1.23;;;4.70;93.60;;;;;;5018762;28;20203;-83
2022/02/19 05:33:24;;;;;;;2.80;2.60;;;4.60;93.50;;;;;;5018447;28;20672;-83
2022/02/19 05:35:51;;;;;;;2.28;0.95;;;4.60;93.50;;;;;;5018686;28;20233;-83
2022/02/19 05:38:17;;;;;;;2.85;1.75;;;4.60;93.60;;;;;;5018701;28;20226;-83
2022/02/19 05:40:44;;;;;;;5.03;1.40;;;4.60;93.50;;;;;;5018951;28;20211;-83
2022/02/19 05:43:11;;;;;;;2.35;1.00;;;4.60;93.70;;;;;;5018601;28;20206;-82
2022/02/19 05:45:37;;;;;;;1.55;0.80;;;4.50;93.60;;;;;;5019302;28;20235;-83
2022/02/19 05:48:06;;;;;;;5.10;2.35;;;4.50;93.60;;;;;;5018247;28;20210;-83
2022/02/19 05:50:32;;;;;;;2.88;1.02;;;4.60;93.70;;;;;;5018544;28;20214;-83
2022/02/19 05:53:02;;;;;;;1.08;0.70;;;4.60;93.60;;;;;;5018876;28;20218;-83
2022/02/19 05:55:28;;;;;;;2.42;1.10;;;4.50;93.70;;;;;;5018053;28;20226;-83
2022/02/19 05:57:55;;;;;;;3.47;1.85;;;4.50;93.70;;;;;;5018190;28;20229;-82
2022/02/19 06:00:22;;;;;;;1.45;1.35;;;4.50;93.80;;;;;;5018255;28;20207;-83
2022/02/19 06:02:49;;;;;;;3.95;1.70;;;4.50;93.80;;;;;;5018564;28;20207;-83
2022/02/19 06:05:17;;;;;;;2.13;1.10;;;4.50;93.80;;;;;;5018082;28;20225;-83
2022/02/19 06:07:44;;;;;;;1.58;1.08;;;4.50;93.90;;;;;;5018445;28;20212;-83
2022/02/19 06:10:11;;;;;;;7.53;1.65;;;4.40;94.00;;;;;;5018393;28;20206;-83
2022/02/19 06:12:37;;;;;;;6.10;1.40;;;4.40;94.00;;;;;;5007655;28;20198;-83
2022/02/19 06:15:05;;;;;;;2.95;1.63;;;4.30;94.10;;;;;;5018267;28;20239;-83
2022/02/19 06:17:31;;;;;;;4.22;1.23;;;4.30;94.00;;;;;;5017450;28;20237;-82
2022/02/19 06:19:58;;;;;;;3.25;1.15;;;4.30;94.30;;;;;;5018268;28;20565;-83
2022/02/19 06:22:26;;;;;;;2.85;1.73;;;4.20;94.40;;;;;;5017927;28;20215;-84
2022/02/19 06:24:53;;;;;;;1.90;1.80;;;4.20;94.50;;;;;;5018667;28;20227;-83
2022/02/19 06:27:20;;;;;;;2.55;1.20;;;4.10;94.40;;;;;;5018358;28;20202;-84
2022/02/19 06:29:47;;;;;;;4.72;1.48;;;4.10;94.40;;;;;;5018526;28;20554;-83
2022/02/19 06:32:14;;;;;;;2.95;1.67;;;4.10;94.30;;;;;;5017611;28;20211;-83
2022/02/19 06:34:42;;;;;;;5.82;2.00;;;4.20;94.30;;;;;;5018606;28;20245;-83
2022/02/19 06:37:08;;;;;;;2.22;1.05;;;4.10;94.30;;;;;;5017825;28;20245;-83
2022/02/19 06:39:36;;;;;;;5.60;1.55;;;4.10;94.40;;;;;;5017907;28;20211;-83
2022/02/19 06:42:03;;;;;;;1.75;1.40;;;4.10;94.60;;;;;;5018275;28;20221;-82
2022/02/19 06:44:30;;;;;;;3.25;1.90;;;4.10;94.40;;;;;;5018607;28;20222;-82
2022/02/19 06:46:57;;;;;;;6.20;2.20;;;4.10;94.20;;;;;;5018110;28;20211;-83
2022/02/19 06:49:24;;;;;;;2.00;1.67;;;4.20;94.30;;;;;;5017915;28;20199;-83
2022/02/19 06:51:50;;;;;;;2.92;1.35;;;4.10;94.20;;;;;;5019471;28;20597;-82
2022/02/19 06:54:18;;;;;;;7.20;1.40;;;4.20;94.30;;;;;;5018115;28;20238;-83
2022/02/19 06:56:46;;;;;;;3.83;1.30;;;4.20;94.10;;;;;;5018032;28;20206;-82
2022/02/19 06:59:13;;;;;;;2.95;1.30;;;4.20;94.30;;;;;;5018183;28;20541;-83
2022/02/19 07:01:40;;;;;;;2.53;1.52;;;4.20;94.30;;;;;;5016865;28;20214;-83
2022/02/19 07:04:07;;;;;;;2.70;1.20;;;4.20;94.40;;;;;;5017580;28;20241;-83
2022/02/19 07:06:34;;;;;;;1.75;1.25;;;4.20;94.30;;;;;;5017518;28;20206;-83
2022/02/19 07:09:01;;;;;;;2.90;2.65;;;4.20;94.30;;;;;;5017437;28;20238;-83
2022/02/19 07:11:28;;;;;;;2.67;1.13;;;4.30;94.40;;;;;;5017194;28;20211;-83
2022/02/19 07:13:56;;;;;;;1.52;1.08;;;4.30;95.10;;;;;;5018147;28;20227;-83
2022/02/19 07:16:23;;;;;;;4.35;1.45;;;4.40;94.60;;;;;;5017584;28;20218;-82
2022/02/19 07:18:49;;;;;;;0.60;0.60;;;4.40;93.90;;;;;;5018189;28;20280;-83
2022/02/19 07:21:16;;;;;;;4.05;1.20;;;4.40;93.80;;;;;;5017279;28;20210;-83
2022/02/19 07:23:43;;;;;;;4.13;1.23;;;4.40;94.00;;;;;;5017711;28;20218;-82
2022/02/19 07:26:10;;;;;;;6.35;1.75;;;4.40;93.90;;;;;;5017568;28;20208;-82
2022/02/19 07:28:36;;;;;;;4.32;1.75;;;4.40;93.90;;;;;;5019974;28;20690;-83
2022/02/19 07:31:05;;;;;;;1.23;1.02;;;4.50;94.00;;;;;;5021165;28;20206;-83
2022/02/19 07:33:31;;;;;;;3.17;1.25;;;4.50;93.90;;;;;;5020960;28;20691;-83
2022/02/19 07:35:58;;;;;;;5.38;1.75;;;4.60;94.10;;;;;;5021868;28;20206;-83
2022/02/19 07:38:25;;;;;;;8.80;1.60;;;4.60;94.10;;;;;;5021850;28;20219;-83
2022/02/19 07:40:51;;;;;;;2.75;1.48;;;4.70;93.80;;;;;;5021412;28;20207;-83
2022/02/19 07:43:18;;;;;;;1.90;0.90;;;4.70;93.70;;;;;;5020995;28;20209;-83
2022/02/19 07:45:46;;;;;;;4.80;1.65;;;4.70;93.70;;;;;;5021376;28;20257;-83
2022/02/19 07:48:14;;;;;;;3.72;1.50;;;4.80;94.30;;;;;;5021345;28;20199;-82
2022/02/19 07:58:54;;;;;;;2.28;1.25;;;5.00;93.40;;;;;;5021092;28;20254;-82
2022/02/19 08:01:21;;;;;;;1.17;1.08;;;5.00;93.30;;;;;;5021109;28;20226;-83
2022/02/19 08:03:49;;;;;;;1.58;1.15;;;5.00;93.20;;;;;;5021198;28;20206;-83
2022/02/19 08:06:15;;;;;;;2.15;1.67;;;5.00;93.10;;;;;;5020823;28;20207;-83
2022/02/19 08:08:42;;;;;;;3.67;1.00;;;5.10;93.30;;;;;;5020852;28;20207;-82
2022/02/19 08:11:09;;;;;;;1.90;1.20;;;5.20;93.20;;;;;;5020170;28;20207;-83
2022/02/19 08:13:36;;;;;;;6.22;1.25;;;5.40;93.40;;;;;;5020908;28;20202;-82
2022/02/19 08:16:03;;;;;;;2.20;2.00;;;5.50;93.30;;;;;;5021016;28;20206;-83
2022/02/19 08:18:31;;;;;;;1.63;1.05;;;5.50;92.90;;;;;;5020324;28;20233;-82
2022/02/19 08:20:59;;;;;;;0.90;0.90;;;5.50;92.60;;;;;;5021331;28;20207;-81
2022/02/19 08:23:26;;;;;;;2.80;1.40;;;5.50;92.70;;;;;;5021968;28;20199;-82
2022/02/19 08:25:53;;;;;;;2.72;1.50;;;5.50;92.70;;;;;;5021766;28;20227;-81
2022/02/19 08:28:20;;;;;;;2.15;1.10;;;5.60;93.20;;;;;;5022500;28;20207;-82
2022/02/19 08:30:47;;;;;;;1.20;1.08;;;5.60;92.70;;;;;;5023160;28;20465;-82
2022/02/19 08:33:14;;;;;;;3.38;1.63;;;5.40;92.70;;;;;;5026016;28;20664;-82
2022/02/19 08:35:42;;;;;;;2.30;1.67;;;5.50;93.00;;;;;;5024365;28;20600;-83
2022/02/19 08:38:11;;;;;;;3.65;1.90;;;5.40;93.00;;;;;;5026210;28;20219;-81
2022/02/19 08:40:38;;;;;;;2.78;1.05;;;5.40;93.00;;;;;;5027921;28;20210;-83
2022/02/19 08:43:05;;;;;;;5.22;1.23;;;5.30;93.00;;;;;;5019400;28;20207;-82
2022/02/19 08:45:32;;;;;;;6.65;1.10;;;5.30;93.20;;;;;;5017000;28;20226;-82
2022/02/19 08:48:05;;;;;;;1.20;1.10;;;5.20;93.00;;;;;;5019266;28;20673;-81
2022/02/19 08:50:33;;;;;;;1.75;0.90;;;5.20;93.30;;;;;;5021231;28;20191;-83
2022/02/19 08:53:00;;;;;;;5.88;2.13;;;5.30;93.10;;;;;;5021024;28;20226;-82
2022/02/19 08:55:29;;;;;;;1.20;1.05;;;5.40;93.40;;;;;;5021212;28;20287;-83
2022/02/19 08:57:56;;;;;;;1.73;0.98;;;5.50;93.30;;;;;;5020939;28;20235;-81
2022/02/19 09:00:23;;;;;;;1.35;1.25;;;5.40;93.20;;;;;;5019128;28;20207;-83
2022/02/19 09:02:50;;;;;;;4.00;1.48;;;5.40;93.10;;;;;;5014109;28;20204;-83
2022/02/19 09:05:20;;;;;;;5.85;2.03;;;5.50;93.50;;;;;;5014256;28;20245;-83
2022/02/19 09:07:47;;;;;;;6.38;1.50;;;5.50;93.00;;;;;;5013039;28;20206;-82
2022/02/19 09:10:15;;;;;;;1.73;1.23;;;5.50;93.10;;;;;;5011290;28;20214;-81
2022/02/19 09:12:46;;;;;;;3.80;1.35;;;5.50;92.80;;;;;;5019686;28;20195;-83
2022/02/19 09:15:14;;;;;;;2.67;1.30;;;5.60;92.90;;;;;;5016896;28;20223;-84
2022/02/19 09:17:41;;;;;;;1.13;0.98;;;5.60;92.80;;;;;;5019823;28;20195;-83
2022/02/19 09:20:09;;;;;;;1.65;1.25;;;5.60;92.60;;;;;;5019336;28;20254;-83
2022/02/19 09:22:37;;;;;;;1.60;1.02;;;5.60;92.50;;;;;;5020562;28;20207;-83
2022/02/19 09:25:04;;;;;;;5.97;1.65;;;5.70;92.70;;;;;;5020469;28;20710;-83
2022/02/19 09:27:31;;;;;;;0.73;0.73;;;5.80;92.30;;;;;;5021001;28;20195;-84
2022/02/19 09:30:01;;;;;;;1.92;0.82;;;5.90;92.20;;;;;;5019499;28;20207;-84
2022/02/19 09:32:28;;;;;;;7.75;2.20;;;5.90;92.10;;;;;;5019583;28;20203;-82
2022/02/19 09:34:55;;;;;;;2.05;1.20;;;5.80;92.10;;;;;;5018811;28;20219;-82
2022/02/19 09:37:23;;;;;;;2.03;1.80;;;5.80;92.10;;;;;;5019903;28;20210;-82
2022/02/19 09:39:50;;;;;;;6.15;1.38;;;5.90;91.70;;;;;;5019937;28;20305;-84
2022/02/19 09:42:17;;;;;;;3.92;1.88;;;5.90;91.40;;;;;;5021339;28;20210;-82
2022/02/19 09:44:44;;;;;;;3.13;2.50;;;6.00;91.60;;;;;;5022691;28;20223;-82
2022/02/19 09:47:13;;;;;;;5.50;1.35;;;5.90;91.70;;;;;;5023363;28;20206;-80
2022/02/19 09:49:41;;;;;;;1.63;1.15;;;5.70;91.10;;;;;;5023722;28;20203;-81
2022/02/19 09:52:08;;;;;;;2.28;1.05;;;5.80;91.50;;;;;;5015026;28;20214;-81
2022/02/19 09:54:35;;;;;;;2.38;1.02;;;5.90;91.90;;;;;;5024581;28;20226;-81
2022/02/19 09:57:02;;;;;;;2.60;0.80;;;5.90;92.00;;;;;;5026078;28;20706;-81
2022/02/19 09:59:29;;;;;;;5.95;1.48;;;6.00;92.40;;;;;;5024833;28;20334;-81
2022/02/19 10:02:04;;;;;;;3.88;1.73;;;6.10;92.10;;;;;;5024363;28;20680;-81
2022/02/19 10:04:32;;;;;;;2.22;1.38;;;6.20;91.80;;;;;;5023212;28;20310;-82
2022/02/19 10:07:00;;;;;;;1.05;0.95;;;6.30;91.20;;;;;;5024219;28;20728;-82
2022/02/19 10:09:28;;;;;;;5.35;1.60;;;6.40;91.60;;;;;;5024559;28;20211;-81
2022/02/19 10:12:07;;;;;;;3.00;1.48;;;6.50;90.40;;;;;;5023036;28;20203;-82
2022/02/19 10:14:36;;;;;;;2.55;1.10;;;6.80;90.30;;;;;;5023326;28;20227;-82
2022/02/19 10:17:16;;;;;;;5.43;1.50;;;6.90;90.00;;;;;;5024420;28;20630;-82
2022/02/19 10:19:55;;;;;;;4.93;1.60;;;7.00;89.60;;;;;;5025131;28;20230;-82
2022/02/19 10:22:24;;;;;;;2.05;0.88;;;7.00;88.80;;;;;;5025114;28;20207;-81
2022/02/19 10:24:54;;;;;;;1.75;1.30;;;7.10;87.70;;;;;;5025028;28;20277;-81
2022/02/19 10:27:21;;;;;;;3.38;1.48;;;7.10;88.00;;;;;;5025234;28;20217;-82
2022/02/19 10:29:49;;;;;;;5.15;1.30;;;7.00;88.10;;;;;;5026418;28;20261;-81
2022/02/19 10:32:17;;;;;;;4.85;1.20;;;7.10;88.30;;;;;;5024723;28;20665;-81
2022/02/19 10:34:57;;;;;;;5.65;1.90;;;6.90;87.90;;;;;;5024488;28;20231;-82
2022/02/19 10:37:25;;;;;;;1.77;1.20;;;7.00;88.60;;;;;;5024607;28;20301;-81
2022/02/19 10:39:52;;;;;;;3.05;0.80;;;7.00;88.90;;;;;;5023791;28;20719;-79
2022/02/19 10:42:30;;;;;;;1.00;1.00;;;7.00;90.10;;;;;;5023028;28;20211;-81
2022/02/19 10:44:57;;;;;;;5.28;1.35;;;7.00;89.20;;;;;;5023905;28;20230;-82
2022/02/19 10:47:25;;;;;;;1.10;1.00;;;7.00;87.80;;;;;;5023802;28;20238;-82
2022/02/19 10:50:12;;;;;;;2.05;0.93;;;7.10;88.00;;;;;;5023673;28;20207;-81
2022/02/19 10:52:40;;;;;;;1.15;0.90;;;7.20;86.70;;;;;;5023863;28;20215;-80
2022/02/19 10:55:09;;;;;;;1.88;1.20;;;7.30;86.60;;;;;;5024109;28;20278;-82
2022/02/19 10:57:41;;;;;;;1.13;0.73;;;7.30;85.20;;;;;;5024373;28;20597;-82
2022/02/19 11:00:15;;;;;;;1.50;1.40;;;7.30;83.70;;;;;;5023830;28;20313;-80
2022/02/19 11:02:44;;;;;;;1.23;0.93;;;7.00;84.00;;;;;;5024275;28;20206;-81
2022/02/19 11:05:13;;;;;;;3.10;1.05;;;7.00;85.50;;;;;;5024270;28;20246;-80
2022/02/19 11:07:42;;;;;;;1.25;0.70;;;7.10;85.70;;;;;;5026145;28;20211;-82
2022/02/19 11:10:11;;;;;;;5.38;0.90;;;7.50;83.50;;;;;;5023812;28;20202;-79
2022/02/19 11:12:37;;;;;;;1.10;1.00;;;7.70;82.40;;;;;;5028079;28;20213;-81
2022/02/19 11:15:07;;;;;;;0.98;0.70;;;8.00;81.30;;;;;;5023134;28;20258;-81
2022/02/19 11:17:35;;;;;;;4.65;0.73;;;7.70;81.60;;;;;;5023188;28;20210;-81
2022/02/19 11:20:04;;;;;;;2.95;1.40;;;7.60;83.10;;;;;;5023367;28;20735;-81
2022/02/19 11:22:34;;;;;;;3.65;1.27;;;7.90;83.20;;;;;;5024853;28;20208;-81
2022/02/19 11:25:02;;;;;;;2.80;1.73;;;8.10;84.10;;;;;;5023147;28;20237;-81
2022/02/19 11:27:31;;;;;;;3.80;1.17;;;8.80;83.30;;;;;;5024378;28;20218;-81
2022/02/19 11:30:03;;;;;;;2.88;2.13;;;9.30;81.10;;;;;;5023729;28;20200;-81
2022/02/19 11:32:31;;;;;;;3.08;1.77;;;9.20;79.40;;;;;;5025157;28;20211;-81
2022/02/19 11:34:58;;;;;;;1.30;0.82;;;8.70;79.50;;;;;;5024167;28;20238;-81
2022/02/19 11:37:25;;;;;;;3.28;1.10;;;8.20;79.20;;;;;;5025467;28;20217;-81
2022/02/19 11:40:03;;;;;;;1.85;1.00;;;8.10;80.80;;;;;;5025050;28;20229;-81
2022/02/19 11:42:39;;;;;;;3.63;0.88;;;7.70;80.50;;;;;;5025206;28;20201;-81
2022/02/19 11:45:33;;;;;;;2.97;1.35;;;7.80;81.70;;;;;;5025064;28;20254;-80
2022/02/19 11:48:26;;;;;;;1.10;0.70;;;8.70;81.60;;;;;;5025592;28;20203;-81
2022/02/19 11:51:10;;;;;;;4.65;2.00;;;8.50;78.70;;;;;;5026909;28;20235;-78
2022/02/19 11:53:36;;;;;;;4.97;1.35;;;9.00;78.90;;;;;;5026491;28;20286;-81
2022/02/19 11:56:10;;;;;;;0.77;0.70;;;9.30;78.70;;;;;;5026082;28;20208;-82
2022/02/19 11:58:51;;;;;;;2.97;1.67;;;8.70;79.20;;;;;;5026473;28;20286;-80
2022/02/19 12:01:18;;;;;;;2.70;0.95;;;8.50;78.20;;;;;;5025959;28;20222;-82
2022/02/19 12:03:45;;;;;;;1.08;0.98;;;7.90;79.80;;;;;;5025471;28;20211;-83
2022/02/19 12:06:18;;;;;;;1.50;1.00;;;8.00;82.00;;;;;;5028369;28;20203;-82
2022/02/19 12:09:10;;;;;;;2.78;1.15;;;8.00;79.40;;;;;;5023657;28;20249;-82
2022/02/19 12:12:11;;;;;;;2.67;1.33;;;8.00;80.50;;;;;;5023984;28;20211;-81
2022/02/19 12:14:53;;;;;;;2.08;1.08;;;7.80;81.10;;;;;;5024939;28;20233;-82
2022/02/19 12:17:22;;;;;;;5.45;1.75;;;7.80;81.70;;;;;;5027593;28;20247;-82
2022/02/19 12:20:00;;;;;;;4.45;1.20;;;8.60;80.40;;;;;;5027094;28;20258;-81
2022/02/19 12:22:32;;;;;;;2.97;1.58;;;9.50;79.60;;;;;;5027295;28;20211;-82
2022/02/19 12:24:59;;;;;;;1.75;1.02;;;9.00;76.60;;;;;;5027601;28;20229;-81
2022/02/19 12:27:28;;;;;;;1.38;1.27;;;9.20;77.50;;;;;;5028432;28;20214;-83
2022/02/19 12:30:30;;;;;;;3.10;1.40;;;9.60;75.90;;;;;;5029017;28;20214;-82
2022/02/19 12:33:00;;;;;;;1.98;1.23;;;10.20;73.90;;;;;;5026227;28;20210;-82
2022/02/19 12:35:35;;;;;;;1.23;1.13;;;10.00;70.80;;;;;;5026505;28;20249;-82
2022/02/19 12:38:02;;;;;;;1.80;1.40;;;10.30;70.80;;;;;;5025848;28;20232;-82
2022/02/19 12:40:30;;;;;;;2.95;1.90;;;10.70;69.50;;;;;;5026608;28;20229;-82
2022/02/19 12:43:01;;;;;;;5.27;1.40;;;10.70;68.30;;;;;;5026876;28;20835;-81
2022/02/19 12:45:28;;;;;;;5.80;1.33;;;10.60;67.00;;;;;;5027021;28;20508;-82
2022/02/19 12:47:54;;;;;;;1.43;0.90;;;10.80;67.40;;;;;;5027178;28;20445;-82
2022/02/19 12:50:22;;;;;;;1.20;1.10;;;11.20;66.90;;;;;;5027379;28;20452;-82
2022/02/19 12:52:50;;;;;;;1.90;0.70;;;11.40;65.00;;;;;;5026105;28;20457;-82
2022/02/19 12:55:19;;;;;;;2.20;1.03;;;11.10;65.10;;;;;;5025720;28;20841;-83
2022/02/19 12:57:46;;;;;;;1.20;1.10;;;10.30;65.60;;;;;;5025766;28;21053;-81
2022/02/19 13:00:16;;;;;;;2.30;0.70;;;10.60;67.40;;;;;;5025511;28;20681;-82
2022/02/19 13:02:45;;;;;;;1.90;1.33;;;10.90;66.50;;;;;;5026154;28;20449;-82
2022/02/19 13:05:13;;;;;;;1.97;1.00;;;10.70;64.30;;;;;;5026144;28;20488;-83
2022/02/19 13:07:40;;;;;;;2.25;1.13;;;10.50;65.60;;;;;;5028806;28;20432;-82
2022/02/19 13:10:09;;;;;;;4.87;1.33;;;10.90;66.10;;;;;;5030239;28;20209;-82